Time;durP1;ratioP1;P1;durP2;ratioP2;P2;SDS_P1;SDS_P2;PMS_P1;PMS_P2;Temp;Humidity;BMP_temperature;BMP_pressure;BME280_temperature;BME280_humidity;BME280_pressure;Samples;Min_cycle;Max_cycle;Signal;HPM_P1;HPM_P2
2024/01/01 00:05:20;;;;;;;1.70;1.52;;;;;;;19.78;49.08;95999.91;20859267;28;20452;-55
2024/01/01 00:15:40;;;;;;;1.58;1.48;;;;;;;19.73;48.96;95998.22;20826351;28;20056;-55
2024/01/01 00:25:59;;;;;;;2.00;1.80;;;;;;;19.68;49.09;95974.13;20878553;28;20036;-55
2024/01/01 00:36:18;;;;;;;1.50;1.40;;;;;;;19.66;49.02;95979.09;20779875;28;20058;-55
2024/01/01 00:46:38;;;;;;;1.60;1.50;;;;;;;19.67;49.14;96004.19;20862858;28;20122;-55
2024/01/01 00:56:58;;;;;;;3.15;1.60;;;;;;;19.65;49.19;96006.47;20869091;28;20506;-54
2024/01/01 01:07:18;;;;;;;1.70;1.60;;;;;;;19.64;49.30;96002.16;20846077;28;20049;-55
2024/01/01 01:17:38;;;;;;;1.50;1.40;;;;;;;19.60;49.10;95998.59;20851899;28;20382;-54
2024/01/01 01:27:58;;;;;;;1.50;1.40;;;;;;;19.58;49.37;96022.47;20865381;28;20473;-55
2024/01/01 01:38:18;;;;;;;1.52;1.40;;;;;;;19.55;49.34;96021.25;20837624;28;20064;-54
2024/01/01 01:48:37;;;;;;;1.63;1.52;;;;;;;19.51;49.33;95991.41;20796717;28;20056;-55
2024/01/01 01:58:57;;;;;;;1.60;1.50;;;;;;;19.50;49.50;95997.16;20844556;28;20061;-55
2024/01/01 02:09:17;;;;;;;1.70;1.60;;;;;;;19.45;49.32;96000.91;20853841;28;20544;-55
2024/01/01 02:19:37;;;;;;;1.58;1.48;;;;;;;19.41;49.33;95985.72;20861045;28;20048;-56
2024/01/01 02:29:56;;;;;;;1.50;1.40;;;;;;;19.39;49.36;95983.34;20846549;28;20107;-55
2024/01/01 02:40:16;;;;;;;1.55;1.35;;;;;;;19.36;49.33;95982.09;20854860;28;20065;-54
2024/01/01 02:50:36;;;;;;;1.77;1.60;;;;;;;19.37;49.55;95988.31;20862371;28;20052;-55
2024/01/01 03:00:55;;;;;;;1.45;1.35;;;;;;;19.33;49.32;95998.22;20859584;28;20061;-55
2024/01/01 03:11:15;;;;;;;1.65;1.55;;;;;;;19.32;49.56;95993.94;20855568;28;20061;-55
2024/01/01 03:21:34;;;;;;;1.52;1.42;;;;;;;19.25;49.51;95986.44;20825234;28;20052;-55
2024/01/01 03:31:54;;;;;;;1.38;1.27;;;;;;;19.22;49.65;95984.41;20844901;28;20196;-55
2024/01/01 03:42:14;;;;;;;1.63;1.52;;;;;;;19.20;49.64;95989.38;20871051;28;20064;-55
2024/01/01 03:52:34;;;;;;;1.50;1.40;;;;;;;19.15;49.55;95968.78;20874539;28;20045;-55
2024/01/01 04:02:53;;;;;;;1.40;1.30;;;;;;;19.13;49.68;95968.34;20875390;28;20049;-55
2024/01/01 04:13:13;;;;;;;1.50;1.40;;;;;;;19.12;49.76;95955.19;20860809;28;20056;-55
2024/01/01 04:23:32;;;;;;;1.75;1.65;;;;;;;19.10;49.59;95957.44;20871400;28;20616;-55
2024/01/01 04:33:51;;;;;;;1.65;1.40;;;;;;;19.05;49.73;95944.97;20865486;28;20102;-55
2024/01/01 04:44:11;;;;;;;1.23;1.15;;;;;;;19.03;49.73;95941.81;20869267;28;20079;-55
2024/01/01 04:54:31;;;;;;;1.20;1.10;;;;;;;18.98;49.65;95952.09;20827211;28;20418;-55
2024/01/01 05:04:50;;;;;;;1.52;1.42;;;;;;;18.98;49.83;95947.47;20786735;28;20049;-55
2024/01/01 05:15:13;;;;;;;1.40;1.30;;;;;;;18.95;49.69;95937.34;20817031;28;20053;-55
2024/01/01 05:25:33;;;;;;;1.35;1.25;;;;;;;18.89;49.79;95933.31;20853577;28;20614;-55
2024/01/01 05:35:52;;;;;;;1.30;1.20;;;;;;;18.87;49.80;95941.72;20892635;28;20094;-55
2024/01/01 05:46:12;;;;;;;1.50;1.40;;;;;;;18.87;49.64;95955.22;20828720;28;20057;-55
2024/01/01 05:56:31;;;;;;;1.35;1.25;;;;;;;18.91;49.64;95966.91;20845765;28;20049;-54
2024/01/01 06:06:51;;;;;;;1.50;1.33;;;;;;;18.97;49.71;95980.97;20853918;28;20421;-55
2024/01/01 06:17:11;;;;;;;1.20;1.10;;;;;;;19.02;49.48;95994.25;20862431;28;20398;-56
2024/01/01 06:27:30;;;;;;;1.20;1.10;;;;;;;19.07;49.19;95998.59;20889099;28;20041;-55
2024/01/01 06:37:49;;;;;;;1.45;1.35;;;;;;;19.14;49.07;96006.94;20847201;28;20049;-55
2024/01/01 06:48:11;;;;;;;1.35;1.25;;;;;;;19.16;48.95;96002.75;20888926;28;20049;-55
2024/01/01 06:58:30;;;;;;;1.20;1.10;;;;;;;19.23;48.95;96020.28;20839639;28;20061;-55
2024/01/01 07:08:50;;;;;;;1.48;1.20;;;;;;;19.29;48.92;96038.63;20896037;28;20650;-55
2024/01/01 07:19:09;;;;;;;1.30;1.20;;;;;;;19.35;48.76;96033.78;20855405;28;20060;-54
2024/01/01 07:29:30;;;;;;;1.05;1.02;;;;;;;19.40;48.54;96043.56;20860633;28;20060;-55
2024/01/01 07:39:50;;;;;;;1.02;1.00;;;;;;;19.43;48.45;96048.28;20856893;28;20245;-56
2024/01/01 07:50:09;;;;;;;1.23;1.10;;;;;;;19.49;48.44;96047.69;20901095;28;20049;-55
2024/01/01 08:00:29;;;;;;;0.82;0.82;;;;;;;19.59;48.28;96056.47;20871552;28;20045;-60
2024/01/01 08:10:49;;;;;;;1.13;1.05;;;;;;;19.62;48.20;96080.06;20892058;28;20107;-55
2024/01/01 08:21:08;;;;;;;1.00;1.00;;;;;;;19.64;48.19;96083.22;20885405;28;20696;-55
2024/01/01 08:31:27;;;;;;;1.40;1.00;;;;;;;19.67;48.07;96082.56;20853536;28;20056;-56
2024/01/01 08:41:47;;;;;;;0.90;0.90;;;;;;;19.75;48.03;96084.34;20871647;28;20257;-55
2024/01/01 08:52:06;;;;;;;1.10;0.85;;;;;;;19.83;47.89;96088.06;20897087;28;20504;-56
2024/01/01 09:02:26;;;;;;;1.20;1.10;;;;;;;19.92;47.72;96081.38;20867542;28;20064;-55
2024/01/01 09:12:46;;;;;;;0.80;0.80;;;;;;;19.99;47.50;96098.94;20822932;28;20064;-56
2024/01/01 09:23:07;;;;;;;1.10;1.00;;;;;;;20.02;47.53;96084.72;20848473;28;20508;-55
2024/01/01 09:33:27;;;;;;;0.93;0.93;;;;;;;20.04;47.32;96096.75;20858585;28;20045;-55
2024/01/01 09:43:47;;;;;;;1.10;0.90;;;;;;;20.09;47.53;96090.31;20828812;28;20060;-55
2024/01/01 09:54:08;;;;;;;0.90;0.80;;;;;;;20.08;47.56;96067.13;20847690;28;20061;-56
2024/01/01 10:04:27;;;;;;;1.00;0.90;;;;;;;20.09;47.46;96061.38;20863486;28;20048;-54
2024/01/01 10:14:49;;;;;;;0.80;0.80;;;;;;;20.10;47.55;96062.94;20809946;28;20473;-55
2024/01/01 10:25:10;;;;;;;0.93;0.93;;;;;;;20.08;47.65;96059.00;20860953;28;20048;-55
2024/01/01 10:35:32;;;;;;;1.15;1.05;;;;;;;20.10;47.60;96049.41;20829108;28;20084;-55
2024/01/01 10:45:56;;;;;;;0.73;0.73;;;;;;;20.05;47.60;96051.56;20872255;28;20044;-54
2024/01/01 10:56:16;;;;;;;0.68;0.68;;;;;;;20.05;47.66;96048.88;20861404;28;20361;-55
2024/01/01 11:06:42;;;;;;;0.93;0.90;;;;;;;19.99;47.69;96048.34;20876935;28;20040;-55
2024/01/01 11:17:06;;;;;;;0.75;0.75;;;;;;;19.94;47.84;96052.09;20861311;28;20053;-55
2024/01/01 11:27:34;;;;;;;1.10;0.82;;;;;;;19.97;48.17;96047.13;20811097;28;20061;-54
2024/01/01 11:37:58;;;;;;;0.75;0.75;;;;;;;19.93;47.87;96061.34;20834429;28;20076;-55
2024/01/01 11:48:18;;;;;;;0.70;0.70;;;;;;;19.94;47.88;96037.78;20838070;28;20338;-55
2024/01/01 11:58:38;;;;;;;0.80;0.80;;;;;;;19.94;47.86;96035.09;20873595;28;20059;-56
2024/01/01 12:09:11;;;;;;;0.80;0.80;;;;;;;19.90;48.08;96042.31;20881833;28;20486;-54
2024/01/01 12:19:31;;;;;;;0.65;0.65;;;;;;;19.96;47.92;96049.03;20854649;28;20651;-56
2024/01/01 12:29:51;;;;;;;0.70;0.70;;;;;;;19.99;47.82;96061.06;20853883;28;20045;-56
2024/01/01 12:40:11;;;;;;;0.65;0.65;;;;;;;19.94;47.90;96062.91;20870343;28;20052;-55
2024/01/01 12:50:31;;;;;;;0.73;0.70;;;;;;;19.91;48.00;96068.97;20896053;28;20598;-55
2024/01/01 13:00:50;;;;;;;0.70;0.70;;;;;;;19.88;47.99;96056.16;20876523;28;20045;-55
2024/01/01 13:11:12;;;;;;;1.15;0.90;;;;;;;19.83;48.07;96052.91;20818667;28;20076;-55
2024/01/01 13:21:32;;;;;;;0.80;0.80;;;;;;;19.80;48.03;96061.69;20856009;28;20107;-55
2024/01/01 13:31:52;;;;;;;0.70;0.70;;;;;;;19.77;48.20;96055.06;20829879;28;20053;-55
2024/01/01 13:42:11;;;;;;;0.50;0.50;;;;;;;19.77;48.17;96067.81;20783756;28;20589;-56
2024/01/01 13:52:33;;;;;;;0.65;0.63;;;;;;;19.75;48.29;96062.75;20865319;28;20063;-55
2024/01/01 14:02:53;;;;;;;0.65;0.65;;;;;;;19.70;48.31;96060.28;20861111;28;20536;-55
2024/01/01 14:13:13;;;;;;;0.50;0.50;;;;;;;19.68;48.21;96066.00;20858280;28;20053;-55
2024/01/01 14:23:32;;;;;;;0.70;0.70;;;;;;;19.68;48.28;96071.41;20862744;28;20538;-55
2024/01/01 14:33:52;;;;;;;0.77;0.70;;;;;;;19.62;48.38;96070.09;20862972;28;20057;-55
2024/01/01 14:44:12;;;;;;;0.52;0.52;;;;;;;19.55;48.53;96091.47;20847408;28;20045;-56
2024/01/01 14:54:31;;;;;;;0.70;0.70;;;;;;;19.53;48.68;96077.53;20871344;28;20560;-55
2024/01/01 15:04:51;;;;;;;0.68;0.65;;;;;;;19.49;48.60;96093.63;20885228;28;20053;-55
2024/01/01 15:15:13;;;;;;;0.60;0.60;;;;;;;19.47;48.71;96095.88;20809716;28;20099;-55
2024/01/01 15:25:32;;;;;;;0.68;0.68;;;;;;;19.45;48.75;96102.75;20830713;28;20115;-55
2024/01/01 15:35:52;;;;;;;0.80;0.70;;;;;;;19.38;48.74;96122.22;20820596;28;20075;-55
2024/01/01 15:46:12;;;;;;;0.52;0.52;;;;;;;19.35;48.80;96129.09;20873707;28;20060;-54
2024/01/01 15:56:32;;;;;;;0.65;0.65;;;;;;;19.33;48.82;96125.94;20872971;28;20069;-55
2024/01/01 16:06:51;;;;;;;0.57;0.57;;;;;;;19.32;48.95;96135.16;20832462;28;20472;-56
2024/01/01 16:17:11;;;;;;;0.75;0.60;;;;;;;19.29;48.88;96143.97;20861083;28;20044;-55
2024/01/01 16:27:30;;;;;;;0.70;0.70;;;;;;;19.23;48.88;96153.41;20871460;28;20642;-56
2024/01/01 16:37:51;;;;;;;0.60;0.60;;;;;;;19.22;49.15;96154.53;20869952;28;20102;-54
2024/01/01 16:48:11;;;;;;;0.70;0.70;;;;;;;19.20;48.99;96166.78;20896645;28;20033;-56
2024/01/01 16:58:30;;;;;;;0.98;0.80;;;;;;;19.21;48.98;96162.94;20851768;28;20083;-55
2024/01/01 17:08:50;;;;;;;0.70;0.70;;;;;;;19.20;48.91;96169.50;20822929;28;20048;-56
2024/01/01 17:19:10;;;;;;;0.85;0.77;;;;;;;19.07;48.04;96171.38;20873288;28;20048;-55
2024/01/01 17:29:31;;;;;;;5.70;1.10;;;;;;;19.14;46.98;96168.91;20826848;28;20046;-56
2024/01/01 17:39:50;;;;;;;3.63;1.23;;;;;;;19.29;47.54;96199.88;20837913;28;20044;-56
2024/01/01 17:50:11;;;;;;;4.32;1.40;;;;;;;19.42;53.12;96192.56;20848358;28;20045;-57
2024/01/01 18:00:30;;;;;;;4.32;1.25;;;;;;;19.54;52.81;96206.88;20829941;28;20083;-56
2024/01/01 18:10:50;;;;;;;4.20;1.08;;;;;;;19.63;53.38;96209.44;20845876;28;20056;-54
2024/01/01 18:21:09;;;;;;;9.50;1.20;;;;;;;19.70;54.12;96211.59;20830557;28;20049;-52
2024/01/01 18:31:29;;;;;;;4.78;1.90;;;;;;;19.05;41.24;96219.53;20858947;28;20044;-54
2024/01/01 18:41:49;;;;;;;6.82;1.73;;;;;;;19.46;45.49;96231.28;20815078;28;20107;-56
2024/01/01 18:52:08;;;;;;;4.78;1.67;;;;;;;19.69;45.89;96228.91;20820546;28;20621;-60
2024/01/01 19:02:28;;;;;;;7.97;1.80;;;;;;;19.83;46.68;96212.38;20837346;28;20057;-56
2024/01/01 19:12:48;;;;;;;3.13;1.42;;;;;;;19.92;46.84;96221.94;20893059;28;20048;-58
2024/01/01 19:23:07;;;;;;;3.55;1.48;;;;;;;19.96;47.19;96235.56;20846248;28;20511;-56
2024/01/01 19:33:27;;;;;;;5.00;1.60;;;;;;;19.97;47.83;96241.75;20825926;28;20464;-59
2024/01/01 19:43:47;;;;;;;3.78;1.67;;;;;;;19.96;48.25;96265.31;20874662;28;20060;-59
2024/01/01 19:54:07;;;;;;;7.03;1.65;;;;;;;20.01;48.81;96273.19;20832404;28;20052;-57
2024/01/01 20:04:27;;;;;;;5.13;1.20;;;;;;;19.98;49.02;96273.88;20842080;28;20056;-58
2024/01/01 20:14:46;;;;;;;4.20;1.20;;;;;;;19.94;49.09;96260.25;20835029;28;20057;-58
2024/01/01 20:25:07;;;;;;;2.50;1.30;;;;;;;19.93;49.16;96250.56;20879001;28;20037;-59
2024/01/01 20:35:26;;;;;;;2.90;1.30;;;;;;;19.93;49.22;96255.16;20855460;28;20057;-59
2024/01/01 20:45:46;;;;;;;2.97;1.10;;;;;;;19.95;49.45;96255.63;20847579;28;20159;-59
2024/01/01 20:56:09;;;;;;;2.70;1.13;;;;;;;19.92;49.65;96254.38;20825682;28;20072;-59
2024/01/01 21:06:29;;;;;;;3.00;1.25;;;;;;;19.90;49.64;96266.69;20829451;28;20045;-60
2024/01/01 21:16:48;;;;;;;3.40;1.30;;;;;;;19.90;49.81;96245.06;20844311;28;20064;-57
2024/01/01 21:27:08;;;;;;;2.17;1.00;;;;;;;19.89;49.72;96276.69;20854202;28;20132;-58
2024/01/01 21:37:27;;;;;;;1.67;0.73;;;;;;;19.91;49.66;96279.84;20845568;28;20072;-58
2024/01/01 21:47:47;;;;;;;2.55;1.02;;;;;;;19.82;49.73;96268.38;20857243;28;20061;-58
2024/01/01 21:58:07;;;;;;;2.08;1.05;;;;;;;19.79;49.70;96268.25;20843532;28;20052;-58
2024/01/01 22:08:27;;;;;;;2.47;1.20;;;;;;;19.78;49.67;96285.56;20844276;28;20119;-58
2024/01/01 22:18:46;;;;;;;2.42;1.20;;;;;;;19.75;49.59;96279.72;20889461;28;20044;-58
2024/01/01 22:29:06;;;;;;;2.25;1.00;;;;;;;19.75;49.51;96265.44;20850830;28;20103;-58
2024/01/01 22:39:26;;;;;;;3.80;0.95;;;;;;;19.73;49.51;96264.97;20845987;28;20064;-58
2024/01/01 22:49:46;;;;;;;2.47;1.10;;;;;;;19.71;49.64;96264.50;20867418;28;20045;-58
2024/01/01 23:00:17;;;;;;;1.70;0.95;;;;;;;19.67;49.54;96269.00;20853393;28;20045;-58
2024/01/01 23:10:37;;;;;;;3.40;1.05;;;;;;;19.64;49.66;96264.25;20853229;28;20566;-58
2024/01/01 23:20:57;;;;;;;1.77;0.93;;;;;;;19.62;49.40;96264.63;20835232;28;20053;-58
2024/01/01 23:31:17;;;;;;;1.88;0.90;;;;;;;19.55;49.63;96253.56;20855456;28;20076;-58
2024/01/01 23:41:36;;;;;;;1.20;1.00;;;;;;;19.55;49.51;96246.25;20857009;28;20044;-58
2024/01/01 23:51:56;;;;;;;3.15;1.10;;;;;;;19.55;49.46;96230.03;20895467;28;20627;-58
